Time;durP1;ratioP1;P1;durP2;ratioP2;P2;SDS_P1;SDS_P2;PMS_P1;PMS_P2;Temp;Humidity;BMP_temperature;BMP_pressure;BME280_temperature;BME280_humidity;BME280_pressure;Samples;Min_cycle;Max_cycle;Signal;HPM_P1;HPM_P2
2023/02/03 00:02:14;;;;;;;7.38;3.63;;;-0.70;99.90;;;;;;2621998;46;20057;31
2023/02/03 00:04:49;;;;;;;11.85;5.22;;;-0.80;99.90;;;;;;2603573;54;20196;31
2023/02/03 00:07:27;;;;;;;11.52;5.32;;;-0.80;99.90;;;;;;2622255;46;20026;31
2023/02/03 00:10:07;;;;;;;9.55;5.30;;;-0.80;99.90;;;;;;2603556;54;19935;31
2023/02/03 00:12:44;;;;;;;12.50;6.50;;;-0.80;99.90;;;;;;2603474;54;20918;31
2023/02/03 00:15:21;;;;;;;13.85;6.47;;;-0.80;99.90;;;;;;2603672;54;20264;31
2023/02/03 00:18:05;;;;;;;13.90;5.20;;;-0.80;99.90;;;;;;2603548;54;20577;31
2023/02/03 00:20:42;;;;;;;19.40;7.30;;;-0.80;99.90;;;;;;2603602;54;20027;31
2023/02/03 00:23:17;;;;;;;16.58;5.97;;;-0.80;99.90;;;;;;2603821;54;20072;31
2023/02/03 00:25:53;;;;;;;;;;;-0.80;99.90;;;;;;2603916;54;20924;31
2023/02/03 00:28:30;;;;;;;28.33;9.73;;;-0.80;99.90;;;;;;2603677;54;19934;31
2023/02/03 00:31:06;;;;;;;25.13;9.07;;;-0.80;99.90;;;;;;2622046;46;20027;31
2023/02/03 00:33:48;;;;;;;26.05;9.18;;;-0.80;99.90;;;;;;2622012;46;20553;31
2023/02/03 00:36:28;;;;;;;25.42;9.85;;;-0.80;99.90;;;;;;2603383;54;20103;31
2023/02/03 00:39:06;;;;;;;23.80;9.48;;;-0.80;99.90;;;;;;2603746;54;20112;31
2023/02/03 00:41:43;;;;;;;22.00;8.10;;;-0.80;99.90;;;;;;2701169;39;20532;31
2023/02/03 00:44:18;;;;;;;23.52;9.13;;;-0.80;99.90;;;;;;2622276;46;20107;31
2023/02/03 00:47:01;;;;;;;23.83;8.55;;;-0.70;99.90;;;;;;2603531;54;20036;31
2023/02/03 00:49:41;;;;;;;23.45;8.68;;;-0.80;99.90;;;;;;2603431;54;20089;31
2023/02/03 00:54:56;;;;;;;27.60;8.98;;;-0.80;99.90;;;;;;2603223;54;20978;31
2023/02/03 00:57:32;;;;;;;19.40;8.25;;;-0.80;99.90;;;;;;2621945;46;20785;31
2023/02/03 01:00:13;;;;;;;21.90;8.80;;;-0.80;99.90;;;;;;2602817;54;20033;31
2023/02/03 01:02:50;;;;;;;19.60;9.00;;;-0.80;99.90;;;;;;2602533;54;20938;31
2023/02/03 01:05:30;;;;;;;21.10;8.20;;;-0.80;99.90;;;;;;2603679;54;20847;31
2023/02/03 01:08:06;;;;;;;26.00;9.15;;;-0.80;99.90;;;;;;2621810;46;20060;31
2023/02/03 01:10:42;;;;;;;17.58;8.55;;;-0.90;99.90;;;;;;2603351;54;20844;31
2023/02/03 01:13:18;;;;;;;21.60;9.30;;;-0.90;99.90;;;;;;2603360;54;20604;31
2023/02/03 01:15:54;;;;;;;19.73;8.75;;;-0.90;99.90;;;;;;2603315;54;20113;31
2023/02/03 01:18:35;;;;;;;19.13;8.15;;;-0.90;99.90;;;;;;2622035;46;20027;31
2023/02/03 01:21:18;;;;;;;19.85;8.25;;;-0.90;99.90;;;;;;2603359;54;20026;31
2023/02/03 01:23:55;;;;;;;16.83;7.65;;;-0.80;99.90;;;;;;2603211;54;21088;31
2023/02/03 01:26:36;;;;;;;17.25;8.25;;;-0.90;99.90;;;;;;2603284;54;20027;31
2023/02/03 01:29:13;;;;;;;21.67;9.38;;;-0.90;99.90;;;;;;2603428;54;20026;31
2023/02/03 01:31:51;;;;;;;20.55;8.70;;;-0.90;99.90;;;;;;2603477;54;20044;31
2023/02/03 01:34:24;;;;;;;16.83;7.93;;;-0.90;99.90;;;;;;2603308;54;20093;31
2023/02/03 01:37:08;;;;;;;16.98;7.57;;;-0.90;99.90;;;;;;2621834;46;20089;31
2023/02/03 01:39:49;;;;;;;20.90;10.07;;;-0.90;99.90;;;;;;2603310;54;20030;31
2023/02/03 01:42:24;;;;;;;16.10;8.50;;;-0.90;99.90;;;;;;2603002;54;20082;31
2023/02/03 01:45:00;;;;;;;18.42;8.85;;;-0.90;99.90;;;;;;2603197;54;20744;31
2023/02/03 01:47:39;;;;;;;17.05;8.80;;;-1.00;99.90;;;;;;2603157;54;20026;31
2023/02/03 01:50:16;;;;;;;18.55;7.88;;;-0.90;99.90;;;;;;2603146;54;20557;31
2023/02/03 01:52:58;;;;;;;18.80;9.38;;;-0.90;99.90;;;;;;2603331;54;20796;31
2023/02/03 01:55:45;;;;;;;17.95;9.00;;;-1.00;99.90;;;;;;2621676;46;20898;31
2023/02/03 01:58:21;;;;;;;17.92;9.68;;;-0.90;99.90;;;;;;2603191;54;20584;31
2023/02/03 02:00:59;;;;;;;21.33;9.38;;;-1.00;99.90;;;;;;2621889;46;20766;31
2023/02/03 02:03:38;;;;;;;19.85;9.52;;;-1.00;99.90;;;;;;2619413;46;20828;31
2023/02/03 02:06:15;;;;;;;20.75;9.60;;;-1.00;99.90;;;;;;2602490;54;20034;31
2023/02/03 02:08:54;;;;;;;17.40;8.70;;;-0.90;99.90;;;;;;2603214;54;20022;31
2023/02/03 02:11:33;;;;;;;19.45;9.80;;;-1.00;99.90;;;;;;2603169;54;20026;31
2023/02/03 02:14:14;;;;;;;19.85;9.75;;;-1.00;99.90;;;;;;2603209;54;20889;31
2023/02/03 02:16:51;;;;;;;19.70;9.23;;;-1.00;99.90;;;;;;2603157;54;20949;31
2023/02/03 02:19:38;;;;;;;20.15;9.32;;;-1.00;99.90;;;;;;2603088;54;20035;31
2023/02/03 02:22:12;;;;;;;19.38;9.80;;;-0.90;99.90;;;;;;2602983;54;20867;31
2023/02/03 02:25:11;;;;;;;16.70;7.80;;;-0.90;99.90;;;;;;2602798;54;20916;31
2023/02/03 02:27:59;;;;;;;14.10;7.85;;;-0.90;99.90;;;;;;2602908;54;20057;31
2023/02/03 02:30:53;;;;;;;17.23;9.57;;;-0.80;99.90;;;;;;2701371;39;20587;31
2023/02/03 02:33:36;;;;;;;20.48;8.82;;;-0.90;99.90;;;;;;2602944;54;20030;31
2023/02/03 02:36:20;;;;;;;14.57;7.82;;;-0.80;99.90;;;;;;2603107;54;20029;31
2023/02/03 02:38:59;;;;;;;14.65;7.30;;;-0.80;99.90;;;;;;2602290;54;20093;31
2023/02/03 02:41:40;;;;;;;15.60;7.60;;;-0.80;99.90;;;;;;2621725;47;20054;31
2023/02/03 02:44:14;;;;;;;16.37;7.70;;;-0.80;99.90;;;;;;2603290;54;20042;31
2023/02/03 02:46:50;;;;;;;19.23;9.90;;;-0.70;99.90;;;;;;2602297;54;20046;31
2023/02/03 02:49:32;;;;;;;17.98;9.20;;;-0.70;99.90;;;;;;2602181;54;20030;31
2023/02/03 02:52:07;;;;;;;17.67;8.60;;;-0.70;99.90;;;;;;2602106;54;20907;31
2023/02/03 02:54:46;;;;;;;18.50;10.38;;;-0.70;99.90;;;;;;2602113;54;20058;31
2023/02/03 02:57:24;;;;;;;19.92;9.05;;;-0.70;99.90;;;;;;2602181;54;20851;31
2023/02/03 03:00:00;;;;;;;14.68;8.32;;;-0.70;99.90;;;;;;2602720;54;20749;31
2023/02/03 03:02:40;;;;;;;18.27;8.85;;;-0.70;99.90;;;;;;2602945;54;20807;31
2023/02/03 03:05:19;;;;;;;21.02;8.55;;;-0.70;99.90;;;;;;2621191;47;20868;31
2023/02/03 03:08:01;;;;;;;16.95;8.23;;;-0.70;99.90;;;;;;2602850;54;20026;31
2023/02/03 03:10:38;;;;;;;17.10;9.05;;;-0.80;99.90;;;;;;2621246;47;20042;31
2023/02/03 03:13:14;;;;;;;;;;;-0.70;99.90;;;;;;2603363;54;20027;31
2023/02/03 03:15:50;;;;;;;17.30;8.70;;;-0.70;99.90;;;;;;2602836;54;19939;31
2023/02/03 03:18:29;;;;;;;24.17;9.88;;;-0.70;99.90;;;;;;2602905;54;20871;31
2023/02/03 03:21:10;;;;;;;15.02;8.35;;;-0.70;99.90;;;;;;2608862;46;20884;31
2023/02/03 03:23:48;;;;;;;18.50;9.10;;;-0.70;99.90;;;;;;2603890;54;19946;31
2023/02/03 03:26:33;;;;;;;20.95;11.25;;;-0.70;99.90;;;;;;2603490;54;20050;31
2023/02/03 03:29:12;;;;;;;16.75;10.50;;;-0.60;99.90;;;;;;2621920;46;20900;31
2023/02/03 03:31:49;;;;;;;19.55;9.73;;;-0.50;99.90;;;;;;2710918;39;20488;31
2023/02/03 03:34:28;;;;;;;21.20;9.82;;;-0.60;99.90;;;;;;2603690;54;20037;31
2023/02/03 03:37:14;;;;;;;15.85;8.05;;;-0.50;99.90;;;;;;2603819;54;20887;31
2023/02/03 03:39:50;;;;;;;18.70;9.23;;;-0.50;99.90;;;;;;2603472;54;20918;31
2023/02/03 03:42:31;;;;;;;17.00;8.80;;;-0.50;99.90;;;;;;2622366;46;20320;31
2023/02/03 03:45:08;;;;;;;13.15;7.25;;;-0.40;99.90;;;;;;2603916;54;20026;31
2023/02/03 03:47:48;;;;;;;18.40;9.25;;;-0.40;99.90;;;;;;2603647;54;20032;31
2023/02/03 03:50:25;;;;;;;15.60;9.35;;;-0.40;99.90;;;;;;2622100;46;20592;31
2023/02/03 03:53:08;;;;;;;16.08;9.65;;;-0.40;99.90;;;;;;2603551;54;19935;31
2023/02/03 03:55:43;;;;;;;17.35;9.45;;;-0.40;99.90;;;;;;2603650;54;20903;31
2023/02/03 03:58:20;;;;;;;15.32;8.85;;;-0.30;99.90;;;;;;2603414;54;20037;31
2023/02/03 04:01:00;;;;;;;14.88;7.78;;;-0.30;99.90;;;;;;2603557;54;20835;31
2023/02/03 04:03:40;;;;;;;16.17;9.45;;;-0.30;99.90;;;;;;2603599;54;20116;31
2023/02/03 04:06:19;;;;;;;14.82;7.93;;;-0.30;99.90;;;;;;2603514;54;20031;31
2023/02/03 04:08:58;;;;;;;14.00;7.70;;;-0.30;99.90;;;;;;2603639;54;20049;31
2023/02/03 04:14:22;;;;;;;15.40;8.70;;;-0.30;99.90;;;;;;2621715;46;20141;31
2023/02/03 04:17:01;;;;;;;14.45;8.20;;;-0.20;99.90;;;;;;2603384;54;20085;31
2023/02/03 04:19:40;;;;;;;15.80;8.30;;;-0.30;99.90;;;;;;2603560;54;20820;31
2023/02/03 04:22:18;;;;;;;13.10;7.40;;;-0.20;99.90;;;;;;2603713;54;20039;31
2023/02/03 04:24:57;;;;;;;14.13;7.82;;;-0.20;99.90;;;;;;2603147;54;20030;31
2023/02/03 04:27:34;;;;;;;12.93;7.10;;;-0.20;99.90;;;;;;2603305;54;20026;31
2023/02/03 04:30:12;;;;;;;11.55;6.72;;;-0.20;99.90;;;;;;2603521;54;20125;31
2023/02/03 04:32:47;;;;;;;13.50;6.70;;;-0.20;99.90;;;;;;2603544;54;20060;31
2023/02/03 04:35:27;;;;;;;14.90;6.63;;;-0.20;99.90;;;;;;2701891;39;21373;31
2023/02/03 04:38:02;;;;;;;11.55;6.22;;;-0.20;99.90;;;;;;2602614;54;20030;31
2023/02/03 04:40:41;;;;;;;14.47;5.57;;;-0.20;99.90;;;;;;2603434;54;20052;31
2023/02/03 04:43:17;;;;;;;14.30;5.57;;;-0.20;99.90;;;;;;2602691;54;20756;31
2023/02/03 04:45:54;;;;;;;14.53;5.23;;;-0.20;99.90;;;;;;2603448;54;20771;31
2023/02/03 04:48:30;;;;;;;17.17;6.10;;;-0.10;99.90;;;;;;2603442;54;20031;31
2023/02/03 04:51:08;;;;;;;11.15;4.43;;;-0.10;99.90;;;;;;2603346;54;20048;31
2023/02/03 04:53:47;;;;;;;10.32;4.93;;;-0.10;99.90;;;;;;2619427;46;20030;31
2023/02/03 04:56:26;;;;;;;13.40;6.88;;;-0.10;99.90;;;;;;2603647;54;20030;31
2023/02/03 04:59:04;;;;;;;9.27;4.97;;;-0.10;99.90;;;;;;2603051;54;20939;31
2023/02/03 05:01:42;;;;;;;12.43;5.78;;;-0.10;99.90;;;;;;2602642;54;20315;31
2023/02/03 05:04:20;;;;;;;11.75;5.32;;;-0.10;99.90;;;;;;2603543;54;20085;31
2023/02/03 05:06:57;;;;;;;9.25;4.30;;;0.00;99.90;;;;;;2603227;54;20668;31
2023/02/03 05:09:36;;;;;;;11.70;5.25;;;0.00;99.90;;;;;;2603300;54;20035;31
2023/02/03 05:14:55;;;;;;;14.40;5.60;;;0.00;99.90;;;;;;2602676;54;20048;31
2023/02/03 05:17:37;;;;;;;9.98;4.30;;;0.00;99.90;;;;;;2602492;54;20108;31
2023/02/03 05:20:17;;;;;;;12.88;5.45;;;0.10;99.90;;;;;;2602513;54;20041;31
2023/02/03 05:22:52;;;;;;;14.15;5.30;;;0.10;99.90;;;;;;2603233;54;20039;31
2023/02/03 05:25:29;;;;;;;12.43;5.38;;;0.10;99.90;;;;;;2621683;46;20841;31
2023/02/03 05:28:07;;;;;;;;;;;0.10;99.90;;;;;;2603415;54;20089;31
2023/02/03 05:30:51;;;;;;;9.48;4.78;;;0.10;99.90;;;;;;2700995;39;20366;31
2023/02/03 05:33:29;;;;;;;12.05;4.90;;;0.10;99.90;;;;;;2602476;54;20107;31
2023/02/03 05:36:06;;;;;;;9.80;4.22;;;0.20;99.90;;;;;;2602239;54;20049;31
2023/02/03 05:38:42;;;;;;;9.10;4.32;;;0.20;99.90;;;;;;2621674;47;20026;31
2023/02/03 05:44:10;;;;;;;10.45;4.90;;;0.10;99.90;;;;;;2603312;54;20033;31
2023/02/03 05:46:48;;;;;;;9.68;5.00;;;0.10;99.90;;;;;;2603467;54;20879;31
2023/02/03 05:49:28;;;;;;;10.95;5.25;;;0.10;99.90;;;;;;2603234;54;20130;31
2023/02/03 05:52:04;;;;;;;10.00;5.50;;;0.10;99.90;;;;;;2603152;54;20888;31
2023/02/03 05:54:40;;;;;;;11.53;5.73;;;0.10;99.90;;;;;;2602426;54;20104;31
2023/02/03 05:57:20;;;;;;;11.38;5.03;;;0.20;99.90;;;;;;2603355;54;20038;31
2023/02/03 06:00:01;;;;;;;9.67;5.03;;;0.10;99.90;;;;;;2602295;54;20937;31
2023/02/03 06:02:49;;;;;;;12.80;5.75;;;0.10;99.90;;;;;;2603349;54;20254;31
2023/02/03 06:05:27;;;;;;;11.00;5.88;;;0.10;99.90;;;;;;2701891;39;20481;31
2023/02/03 06:08:07;;;;;;;11.63;5.55;;;0.10;99.90;;;;;;2621495;46;20090;31
2023/02/03 06:10:43;;;;;;;13.00;6.18;;;0.10;99.90;;;;;;2603335;54;20030;31
2023/02/03 06:13:19;;;;;;;17.80;6.90;;;0.10;99.90;;;;;;2603436;54;20839;31
2023/02/03 06:15:55;;;;;;;;;;;0.10;99.90;;;;;;2603307;54;20077;31
2023/02/03 06:18:35;;;;;;;14.10;6.85;;;0.10;99.90;;;;;;2603073;54;20772;31
2023/02/03 06:21:10;;;;;;;14.25;7.10;;;0.10;99.90;;;;;;2764710;31;20112;31
2023/02/03 06:23:55;;;;;;;11.88;7.03;;;0.10;99.90;;;;;;2602442;54;20067;31
2023/02/03 06:26:33;;;;;;;15.33;7.10;;;0.10;99.90;;;;;;2603238;54;20879;31
2023/02/03 06:29:13;;;;;;;19.65;8.18;;;0.10;99.90;;;;;;2602827;54;21218;31
2023/02/03 06:31:50;;;;;;;19.55;9.20;;;0.10;99.90;;;;;;2621417;47;20034;31
2023/02/03 06:34:29;;;;;;;18.10;8.07;;;0.10;99.90;;;;;;2603252;54;20042;31
2023/02/03 06:39:36;;;;;;;17.55;8.23;;;0.20;99.90;;;;;;2603000;54;20058;31
2023/02/03 06:42:19;;;;;;;21.02;9.65;;;0.20;99.90;;;;;;2602692;54;20850;31
2023/02/03 06:45:00;;;;;;;20.88;10.77;;;0.20;99.90;;;;;;2602956;54;20026;31
2023/02/03 06:47:41;;;;;;;16.40;9.20;;;0.20;99.90;;;;;;2603088;54;20890;31
2023/02/03 06:50:24;;;;;;;19.77;8.73;;;0.20;99.90;;;;;;2701905;39;20508;31
2023/02/03 06:53:03;;;;;;;19.80;9.60;;;0.30;99.90;;;;;;2603798;54;20030;31
2023/02/03 06:55:43;;;;;;;21.55;11.65;;;0.30;99.90;;;;;;2603736;54;20746;31
2023/02/03 06:58:20;;;;;;;22.30;10.27;;;0.30;99.90;;;;;;2603937;54;20112;31
2023/02/03 07:01:00;;;;;;;23.85;11.80;;;0.30;99.90;;;;;;2603754;54;20031;31
2023/02/03 07:03:35;;;;;;;20.45;10.85;;;0.30;99.90;;;;;;2603755;54;20123;31
2023/02/03 07:06:15;;;;;;;18.50;10.70;;;0.30;99.90;;;;;;2603884;54;20042;31
2023/02/03 07:08:54;;;;;;;21.40;12.38;;;0.40;99.90;;;;;;2621953;46;20865;31
2023/02/03 07:11:34;;;;;;;20.20;11.23;;;0.40;99.90;;;;;;2603854;54;20057;31
2023/02/03 07:14:12;;;;;;;21.88;10.82;;;0.40;99.90;;;;;;2603747;54;20027;31
2023/02/03 07:16:48;;;;;;;21.88;11.50;;;0.40;99.90;;;;;;2622267;46;20153;31
2023/02/03 07:19:24;;;;;;;25.15;12.55;;;0.40;99.90;;;;;;2603497;54;20046;31
2023/02/03 07:25:14;;;;;;;20.05;11.50;;;0.40;99.90;;;;;;2603579;54;20732;31
2023/02/03 07:30:56;;;;;;;22.25;12.65;;;0.40;99.90;;;;;;2611747;54;20018;31
2023/02/03 07:45:57;;;;;;;17.30;8.93;;;0.50;99.90;;;;;;2603061;54;20879;31
2023/02/03 07:55:11;;;;;;;10.50;5.80;;;0.50;99.90;;;;;;2611376;54;20905;31
2023/02/03 07:57:55;;;;;;;13.10;5.40;;;0.50;99.90;;;;;;2603831;54;20584;31
2023/02/03 08:00:33;;;;;;;8.40;5.77;;;0.50;99.90;;;;;;2603211;54;20038;31
2023/02/03 08:06:16;;;;;;;15.35;8.50;;;0.50;99.90;;;;;;2622108;46;20034;31
2023/02/03 08:09:07;;;;;;;13.07;7.75;;;0.50;99.90;;;;;;2602929;54;20770;31
2023/02/03 08:11:52;;;;;;;17.10;9.50;;;0.50;99.90;;;;;;2602628;54;20065;31
2023/02/03 08:14:30;;;;;;;16.60;9.02;;;0.60;99.90;;;;;;2603513;54;20842;31
2023/02/03 08:17:06;;;;;;;19.88;11.52;;;0.50;99.90;;;;;;2603740;54;20028;31
2023/02/03 08:19:43;;;;;;;20.67;12.48;;;0.60;99.90;;;;;;2602724;54;20034;31
2023/02/03 08:22:23;;;;;;;17.92;10.95;;;0.60;99.90;;;;;;2603529;54;20037;31
2023/02/03 08:25:07;;;;;;;19.75;11.35;;;0.60;99.90;;;;;;2603583;54;20027;31
2023/02/03 08:27:45;;;;;;;14.80;10.00;;;0.60;99.90;;;;;;2603483;54;20123;31
2023/02/03 08:30:20;;;;;;;20.17;11.13;;;0.60;99.90;;;;;;2603527;54;20034;31
2023/02/03 08:32:58;;;;;;;20.90;11.85;;;0.60;99.90;;;;;;2603516;54;20084;31
2023/02/03 08:35:35;;;;;;;14.55;8.25;;;0.60;99.90;;;;;;2603601;54;20033;31
2023/02/03 08:38:14;;;;;;;15.33;9.63;;;0.70;99.90;;;;;;2602823;54;20031;31
2023/02/03 08:43:56;;;;;;;17.43;10.17;;;0.70;99.90;;;;;;2603491;54;20027;31
2023/02/03 08:46:42;;;;;;;18.48;9.63;;;0.80;99.90;;;;;;2603449;54;20897;31
2023/02/03 08:49:17;;;;;;;16.27;9.20;;;0.80;99.90;;;;;;2603537;54;20026;31
2023/02/03 08:51:53;;;;;;;17.07;9.40;;;0.80;99.90;;;;;;2603503;54;20916;31
2023/02/03 08:54:31;;;;;;;14.95;9.13;;;0.80;99.90;;;;;;2603362;54;20993;31
2023/02/03 08:57:07;;;;;;;16.45;8.13;;;0.90;99.90;;;;;;2603452;54;20042;31
2023/02/03 08:59:53;;;;;;;19.95;10.10;;;0.90;99.90;;;;;;2602965;54;20093;31
2023/02/03 09:02:29;;;;;;;17.33;9.07;;;0.90;99.90;;;;;;2603489;54;20034;31
2023/02/03 09:05:06;;;;;;;19.35;8.75;;;0.90;99.90;;;;;;2603531;54;20029;31
2023/02/03 09:07:44;;;;;;;14.13;9.17;;;1.00;99.90;;;;;;2603370;54;20955;31
2023/02/03 09:10:23;;;;;;;18.40;9.05;;;1.00;99.90;;;;;;2610249;46;20231;31
2023/02/03 09:12:59;;;;;;;18.33;8.75;;;1.10;99.90;;;;;;2603344;54;20027;31
2023/02/03 09:15:39;;;;;;;15.97;8.83;;;1.10;99.90;;;;;;2603426;54;20110;31
2023/02/03 09:18:20;;;;;;;14.33;8.50;;;1.20;99.90;;;;;;2621786;46;20242;31
2023/02/03 09:20:55;;;;;;;14.20;8.18;;;1.20;99.90;;;;;;2720154;39;20598;31
2023/02/03 09:23:41;;;;;;;13.07;8.50;;;1.20;99.90;;;;;;2603283;54;20116;31
2023/02/03 09:26:17;;;;;;;15.98;8.35;;;1.30;99.90;;;;;;2602688;54;19938;31
2023/02/03 09:28:57;;;;;;;12.90;7.18;;;1.30;99.90;;;;;;2602704;54;20005;31
2023/02/03 09:31:37;;;;;;;14.20;7.50;;;1.30;99.90;;;;;;2603407;54;20030;31
2023/02/03 09:34:15;;;;;;;15.80;8.10;;;1.40;99.90;;;;;;2603337;54;20778;31
2023/02/03 09:36:51;;;;;;;13.13;7.32;;;1.40;99.90;;;;;;2603170;54;20860;31
2023/02/03 09:39:31;;;;;;;18.27;7.93;;;1.40;99.90;;;;;;2603272;54;20027;31
2023/02/03 09:42:22;;;;;;;16.55;7.80;;;1.50;99.90;;;;;;2603145;54;20798;31
2023/02/03 09:45:05;;;;;;;13.50;7.72;;;1.50;99.90;;;;;;2603445;54;20793;31
2023/02/03 09:47:54;;;;;;;14.10;7.85;;;1.50;99.90;;;;;;2603079;54;20026;31
2023/02/03 09:50:33;;;;;;;13.27;7.28;;;1.50;99.90;;;;;;2603342;54;20077;31
2023/02/03 09:53:23;;;;;;;17.45;9.07;;;1.60;99.90;;;;;;2603351;54;20121;31
2023/02/03 09:56:02;;;;;;;17.00;9.10;;;1.60;99.90;;;;;;2603271;54;20851;31
2023/02/03 09:58:45;;;;;;;18.75;9.95;;;1.60;99.90;;;;;;2615519;46;19949;31
2023/02/03 10:07:24;;;;;;;15.10;9.75;;;1.80;99.90;;;;;;2602442;54;20027;31
2023/02/03 10:10:05;;;;;;;15.82;8.63;;;1.80;99.90;;;;;;2603349;54;20865;31
2023/02/03 10:13:01;;;;;;;18.83;10.48;;;1.80;99.90;;;;;;2621742;46;20628;31
2023/02/03 10:15:57;;;;;;;21.67;10.80;;;1.90;99.90;;;;;;2603259;54;20033;31
2023/02/03 10:18:35;;;;;;;18.03;9.77;;;2.00;99.90;;;;;;2621642;46;20091;31
2023/02/03 10:21:16;;;;;;;19.13;9.88;;;2.00;99.90;;;;;;2603057;54;20029;31
2023/02/03 10:24:00;;;;;;;21.38;10.18;;;2.00;99.90;;;;;;2603468;54;20870;31
2023/02/03 10:26:37;;;;;;;23.43;10.73;;;2.10;99.90;;;;;;2603959;54;20049;31
2023/02/03 10:29:20;;;;;;;19.83;10.32;;;2.10;99.90;;;;;;2603971;54;20026;31
2023/02/03 10:31:57;;;;;;;20.58;10.23;;;2.20;99.90;;;;;;2603930;54;20890;31
2023/02/03 10:34:35;;;;;;;17.70;9.50;;;2.20;99.90;;;;;;2603853;54;20027;31
2023/02/03 10:37:18;;;;;;;17.52;9.25;;;2.20;99.90;;;;;;2604052;54;20042;31
2023/02/03 10:40:03;;;;;;;20.20;10.13;;;2.20;99.90;;;;;;2612563;46;20026;31
2023/02/03 10:45:34;;;;;;;17.80;11.45;;;2.40;99.90;;;;;;2603820;54;20762;31
2023/02/03 10:48:10;;;;;;;16.20;10.95;;;2.40;99.90;;;;;;2603805;54;20772;31
2023/02/03 10:50:48;;;;;;;21.58;10.43;;;2.50;99.90;;;;;;2603843;54;20116;31
2023/02/03 10:53:34;;;;;;;20.60;11.17;;;2.50;99.90;;;;;;2603783;54;20911;31
2023/02/03 10:56:15;;;;;;;22.97;12.60;;;2.50;99.90;;;;;;2622168;46;20315;31
2023/02/03 10:58:54;;;;;;;18.52;10.40;;;2.60;99.90;;;;;;2603953;54;20072;31
2023/02/03 11:01:41;;;;;;;16.23;10.30;;;2.60;99.90;;;;;;2603687;54;20037;31
2023/02/03 11:04:17;;;;;;;18.15;10.63;;;2.60;99.90;;;;;;2603724;54;20046;31
2023/02/03 11:07:00;;;;;;;19.90;10.48;;;2.60;99.90;;;;;;2621978;46;20120;31
2023/02/03 11:12:50;;;;;;;18.20;9.60;;;2.70;99.90;;;;;;2603671;54;20732;31
2023/02/03 11:30:37;;;;;;;13.95;7.35;;;2.80;99.90;;;;;;2602537;54;20089;31
2023/02/03 11:33:20;;;;;;;13.73;7.10;;;2.90;99.90;;;;;;2603580;54;20026;31
2023/02/03 11:39:12;;;;;;;6.32;3.70;;;2.90;99.90;;;;;;2601429;54;20015;31
2023/02/03 11:41:56;;;;;;;9.57;3.60;;;3.00;99.90;;;;;;2602763;54;20047;31
2023/02/03 11:44:34;;;;;;;8.35;2.80;;;3.10;99.90;;;;;;2602885;54;20036;31
2023/02/03 11:47:16;;;;;;;5.40;2.63;;;3.20;99.90;;;;;;2602911;54;20776;31
2023/02/03 11:53:08;;;;;;;5.78;1.60;;;3.30;99.90;;;;;;2610878;54;20038;31
2023/02/03 11:55:52;;;;;;;4.20;1.70;;;3.40;99.90;;;;;;2603446;54;20817;31
2023/02/03 11:58:27;;;;;;;3.10;1.77;;;3.40;99.90;;;;;;2603772;54;20089;31
2023/02/03 12:01:08;;;;;;;3.20;1.42;;;3.50;99.90;;;;;;2622294;46;20030;31
2023/02/03 12:04:07;;;;;;;4.03;1.63;;;3.50;99.90;;;;;;2603567;54;20093;31
2023/02/03 12:06:59;;;;;;;6.57;1.50;;;3.60;99.90;;;;;;2603288;54;20093;31
2023/02/03 12:12:29;;;;;;;4.63;2.27;;;3.70;99.90;;;;;;2603331;54;20242;31
2023/02/03 12:17:58;;;;;;;3.05;1.58;;;3.80;99.90;;;;;;2603585;54;20815;31
2023/02/03 12:20:51;;;;;;;3.00;2.00;;;3.80;99.90;;;;;;2603569;54;20026;31
2023/02/03 12:23:38;;;;;;;4.85;2.25;;;4.00;99.90;;;;;;2603213;54;20035;31
2023/02/03 12:26:14;;;;;;;5.87;2.77;;;3.90;99.90;;;;;;2603427;54;20884;31
2023/02/03 12:28:57;;;;;;;3.63;1.85;;;4.00;99.90;;;;;;2603354;54;21107;31
2023/02/03 12:31:38;;;;;;;6.18;3.17;;;4.00;99.90;;;;;;2603719;54;20037;31
2023/02/03 12:34:17;;;;;;;5.65;2.85;;;4.10;99.90;;;;;;2603444;54;20037;31
2023/02/03 12:36:52;;;;;;;5.10;2.28;;;4.20;99.90;;;;;;2622125;46;20819;31
2023/02/03 12:39:33;;;;;;;5.03;1.83;;;4.30;99.90;;;;;;2603560;54;20658;31
2023/02/03 12:42:21;;;;;;;5.97;2.45;;;4.40;99.90;;;;;;2603270;54;20867;31
2023/02/03 12:45:01;;;;;;;3.65;2.25;;;4.50;99.90;;;;;;2603300;54;20027;31
2023/02/03 12:47:38;;;;;;;4.60;2.40;;;4.60;99.90;;;;;;2621371;46;20042;31
2023/02/03 12:50:20;;;;;;;5.07;2.05;;;4.60;99.90;;;;;;2622124;46;19939;31
2023/02/03 12:53:04;;;;;;;5.00;2.60;;;4.70;99.90;;;;;;2621598;46;20194;31
2023/02/03 12:55:43;;;;;;;4.45;2.50;;;4.70;99.90;;;;;;2603389;54;20026;31
2023/02/03 12:58:22;;;;;;;4.28;2.58;;;4.80;99.90;;;;;;2603501;54;20829;31
2023/02/03 13:01:00;;;;;;;6.95;2.58;;;4.80;99.90;;;;;;2603493;54;20830;31
2023/02/03 13:03:38;;;;;;;4.40;2.15;;;4.80;99.90;;;;;;2603180;54;20027;31
2023/02/03 13:06:17;;;;;;;6.13;2.58;;;4.80;99.90;;;;;;2603385;54;20152;31
2023/02/03 13:08:56;;;;;;;3.80;2.60;;;4.90;99.90;;;;;;2603315;54;20826;31
2023/02/03 13:14:35;;;;;;;5.82;3.22;;;4.80;99.90;;;;;;2602631;54;20085;31
2023/02/03 13:17:24;;;;;;;4.60;2.70;;;4.90;99.90;;;;;;2603276;54;20030;31
2023/02/03 13:20:04;;;;;;;5.90;2.80;;;4.90;99.90;;;;;;2603278;54;20795;31
2023/02/03 13:22:39;;;;;;;7.82;3.80;;;4.90;99.90;;;;;;2622011;46;20073;31
2023/02/03 13:25:19;;;;;;;6.97;3.47;;;4.90;99.90;;;;;;2603322;54;20026;31
2023/02/03 13:28:02;;;;;;;6.30;4.03;;;5.00;99.90;;;;;;2603240;54;20026;31
2023/02/03 13:30:48;;;;;;;4.20;3.10;;;5.00;99.90;;;;;;2602462;54;20030;31
2023/02/03 13:33:53;;;;;;;6.22;4.28;;;5.00;99.90;;;;;;2603365;54;21075;31
2023/02/03 13:36:51;;;;;;;3.67;2.22;;;5.10;99.90;;;;;;2603136;54;20744;31
2023/02/03 13:39:32;;;;;;;;;;;5.00;99.90;;;;;;2603445;54;20164;31
2023/02/03 13:48:25;;;;;;;3.55;0.90;;;5.20;99.90;;;;;;2603147;54;20026;31
2023/02/03 13:57:01;;;;;;;1.48;0.80;;;5.40;99.90;;;;;;2602402;54;20231;31
2023/02/03 14:09:25;;;;;;;2.53;0.73;;;5.40;99.90;;;;;;2772428;31;20561;31
2023/02/03 14:15:31;;;;;;;2.50;0.90;;;5.40;99.90;;;;;;2603123;54;20046;31
2023/02/03 14:24:22;;;;;;;2.55;0.60;;;5.40;99.90;;;;;;2602315;54;20093;31
2023/02/03 14:48:33;;;;;;;6.22;1.15;;;5.30;99.90;;;;;;2610769;54;20022;31
2023/02/03 14:51:13;;;;;;;9.97;1.60;;;5.30;99.90;;;;;;2602830;54;20022;31
2023/02/03 14:53:57;;;;;;;8.87;1.37;;;5.20;99.90;;;;;;2621322;47;20242;31
2023/02/03 14:59:31;;;;;;;9.37;1.90;;;5.20;99.90;;;;;;2621579;47;20030;31
2023/02/03 15:02:18;;;;;;;6.68;1.65;;;5.20;99.90;;;;;;2603217;54;20258;31
2023/02/03 15:05:35;;;;;;;9.20;1.45;;;5.20;99.90;;;;;;2602795;54;20065;31
2023/02/03 15:08:31;;;;;;;12.50;2.38;;;5.10;99.90;;;;;;2602750;54;20030;31
2023/02/03 15:53:02;;;;;;;15.20;3.05;;;5.10;99.90;;;;;;2601307;54;20014;31
2023/02/03 16:07:48;;;;;;;13.88;2.60;;;5.10;99.90;;;;;;2602884;54;20106;31
2023/02/03 16:13:32;;;;;;;8.50;2.35;;;5.10;99.90;;;;;;2602936;54;20034;31
2023/02/03 16:16:18;;;;;;;14.20;2.85;;;5.10;99.90;;;;;;2602862;54;20030;31
2023/02/03 16:24:49;;;;;;;11.23;2.70;;;5.10;99.90;;;;;;2608819;46;20861;31
2023/02/03 16:27:57;;;;;;;;;;;;;;;;;;;;;
2023/02/03 16:54:16;;;;;;;10.90;2.10;;;4.50;99.90;;;;;;2602569;54;20054;31
2023/02/03 16:56:56;;;;;;;16.58;3.03;;;4.50;99.90;;;;;;2603272;54;20026;31
2023/02/03 16:59:35;;;;;;;14.48;3.08;;;4.50;99.90;;;;;;2603491;54;20031;31
2023/02/03 17:05:08;;;;;;;18.90;3.85;;;4.50;99.90;;;;;;2603458;54;20022;31
2023/02/03 17:07:45;;;;;;;18.35;3.85;;;4.50;99.90;;;;;;2610081;46;20035;31
2023/02/03 17:10:25;;;;;;;16.95;2.75;;;4.50;99.90;;;;;;2602613;54;20077;31
2023/02/03 17:16:12;;;;;;;14.95;3.38;;;4.60;99.90;;;;;;2611016;54;20018;31
2023/02/03 17:18:55;;;;;;;19.10;3.20;;;4.50;99.90;;;;;;2603472;54;20056;31
2023/02/03 17:24:18;;;;;;;24.88;4.00;;;4.50;99.90;;;;;;2603278;54;20105;31
2023/02/03 17:26:59;;;;;;;15.85;3.78;;;4.60;99.90;;;;;;2602622;54;20875;31
2023/02/03 17:29:37;;;;;;;20.57;3.07;;;4.60;99.90;;;;;;2603301;54;19934;31
2023/02/03 17:32:16;;;;;;;21.20;3.80;;;4.60;99.90;;;;;;2603168;54;20045;31
2023/02/03 17:34:56;;;;;;;22.25;2.95;;;4.60;99.90;;;;;;2603322;54;20065;31
2023/02/03 17:37:37;;;;;;;21.00;4.55;;;4.60;99.90;;;;;;2603231;54;20042;31
2023/02/03 17:40:24;;;;;;;16.98;2.90;;;4.60;99.90;;;;;;2603311;54;20030;31
2023/02/03 17:46:19;;;;;;;21.52;5.32;;;4.60;99.90;;;;;;2602403;54;20907;31
2023/02/03 17:49:19;;;;;;;24.80;4.30;;;4.60;99.90;;;;;;2603127;54;20038;31
2023/02/03 17:52:11;;;;;;;28.67;5.00;;;4.60;99.90;;;;;;2621907;46;20041;31
2023/02/03 17:55:11;;;;;;;26.70;4.53;;;4.60;99.90;;;;;;2603278;54;20075;31
2023/02/03 17:57:49;;;;;;;21.95;4.13;;;4.60;99.90;;;;;;2603225;54;20895;31
2023/02/03 18:00:26;;;;;;;28.70;5.15;;;4.60;99.90;;;;;;2603231;54;20757;31
2023/02/03 18:03:10;;;;;;;16.55;3.30;;;4.50;99.90;;;;;;2602847;54;20026;31
2023/02/03 18:05:53;;;;;;;24.63;5.95;;;4.50;99.90;;;;;;2603272;54;20773;31
2023/02/03 18:08:34;;;;;;;25.58;5.35;;;4.50;99.90;;;;;;2604832;46;20344;31